Terminal Aerodrome Forecast
Issued by NWS

Home | Current Version | Previous Version | Text Only | Print | Product List | Glossary On
Versions: 1 2 3 4 5 6 7 8 9 10 11 12 13 14 15 16 17 18 19 20 21 22 23 24 25 26 27 28 29 30 31 32 33 34 35 36
000
FTAK31 PANC 271129
TAFACD
TAF
PACD 271129Z 2712/2812 14025G35KT P6SM FEW024 BKN120 WS020/16055KT
     FM272000 13020G28KT P6SM -RA SCT008 BKN025 OVC040
     FM272300 13012G18KT 3SM -RA BR BKN008 OVC020
     FM280200 15008KT 3SM -RA BR SCT008 OVC020
     FM280800 35010KT P6SM BKN020 BKN030=

USA.gov is the U.S. government's official web portal to all federal, state and local government web resources and services.